createdAt,value
2018-06-11T00:01:42.443Z,89.58
2018-06-11T00:04:12.155Z,89.43
2018-06-11T00:06:41.086Z,89.53
2018-06-11T00:09:10.331Z,90.38
2018-06-11T00:11:39.884Z,89.77
2018-06-11T00:14:08.994Z,89.76
2018-06-11T00:16:38.544Z,89.83
2018-06-11T00:19:07.905Z,90.71
2018-06-11T00:21:37.342Z,90.99
2018-06-11T00:24:06.905Z,90.90
2018-06-11T00:26:35.966Z,90.70
2018-06-11T00:29:05.255Z,91.61
2018-06-11T00:31:34.652Z,91.76
2018-06-11T00:34:03.831Z,91.75
2018-06-11T00:36:32.934Z,90.86
2018-06-11T00:39:01.876Z,90.58
2018-06-11T00:41:30.903Z,91.04
2018-06-11T00:44:00.227Z,90.96
2018-06-11T00:46:29.149Z,92.14
2018-06-11T00:48:58.434Z,91.49
2018-06-11T00:51:27.906Z,89.85
2018-06-11T00:53:57.015Z,89.97
2018-06-11T00:56:25.939Z,89.70
2018-06-11T00:58:55.415Z,90.80
2018-06-11T01:01:24.543Z,90.30
2018-06-11T01:03:53.811Z,90.84
2018-06-11T01:06:23.006Z,91.30
2018-06-11T01:08:52.108Z,91.10
2018-06-11T01:11:21.181Z,91.48
2018-06-11T01:13:50.308Z,91.34
2018-06-11T01:16:19.803Z,90.56
2018-06-11T01:18:48.915Z,90.54
2018-06-11T01:21:17.993Z,91.68
2018-06-11T01:23:46.926Z,90.41
2018-06-11T01:26:16.064Z,90.77
2018-06-11T01:28:45.176Z,90.82
2018-06-11T01:31:14.318Z,90.62
2018-06-11T01:33:43.570Z,90.64
2018-06-11T01:36:15.100Z,91.22
2018-06-11T01:38:44.318Z,90.70
2018-06-11T01:41:13.410Z,90.09
2018-06-11T01:43:42.375Z,90.05
2018-06-11T01:46:15.167Z,90.03
2018-06-11T01:48:44.507Z,89.67
2018-06-11T01:51:13.586Z,90.02
2018-06-11T01:53:42.670Z,89.90
2018-06-11T01:56:15.307Z,89.44
2018-06-11T01:58:44.765Z,89.89
2018-06-11T02:01:13.852Z,90.30
2018-06-11T02:03:49.511Z,89.29
2018-06-11T02:06:18.879Z,88.82
2018-06-11T02:08:48.022Z,89.76
2018-06-11T02:11:17.311Z,90.16
2018-06-11T02:13:46.667Z,89.76
2018-06-11T02:16:18.283Z,90.49
2018-06-11T02:18:48.058Z,90.89
2018-06-11T02:21:17.147Z,91.05
2018-06-11T02:23:46.070Z,91.02
2018-06-11T02:26:16.292Z,90.36
2018-06-11T02:28:45.786Z,89.58
2018-06-11T02:31:15.123Z,89.65
2018-06-11T02:33:44.344Z,90.09
2018-06-11T02:36:18.598Z,89.70
2018-06-11T02:38:47.691Z,89.74
2018-06-11T02:41:16.803Z,90.23
2018-06-11T02:43:45.877Z,89.88
2018-06-11T02:46:15.122Z,89.83
2018-06-11T02:48:44.035Z,89.33
2018-06-11T02:51:13.163Z,89.96
2018-06-11T02:53:42.356Z,89.86
2018-06-11T02:56:12.128Z,90.39
2018-06-11T02:58:41.158Z,89.49
2018-06-11T03:01:10.143Z,88.54
2018-06-11T03:03:39.349Z,89.46
2018-06-11T03:06:11.203Z,89.56
2018-06-11T03:08:40.556Z,90.26
2018-06-11T03:11:10.032Z,90.54
2018-06-11T03:13:39.314Z,89.85
2018-06-11T11:24:24.976Z,65.31
2018-06-11T11:26:53.932Z,65.96
2018-06-11T11:29:23.031Z,64.20
2018-06-11T11:31:52.109Z,65.97
2018-06-11T11:34:21.041Z,63.94
2018-06-11T11:36:50.313Z,66.70
2018-06-11T11:39:19.271Z,65.63
2018-06-11T11:41:48.239Z,66.26
2018-06-11T11:44:18.016Z,65.71
2018-06-11T11:46:46.994Z,65.90
2018-06-11T11:49:16.141Z,65.96
2018-06-11T11:51:45.372Z,66.78
2018-06-11T11:54:14.500Z,65.03
2018-06-11T11:56:43.567Z,65.19
2018-06-11T11:59:12.690Z,64.67
2018-06-11T12:01:41.768Z,64.09
2018-06-11T12:04:10.896Z,62.65
2018-06-11T12:06:40.233Z,64.32
2018-06-11T12:09:09.592Z,61.47
2018-06-11T12:11:39.068Z,62.64
2018-06-11T12:14:09.035Z,63.92
2018-06-11T12:16:38.108Z,63.25
2018-06-11T12:19:07.623Z,62.95
2018-06-11T12:21:37.304Z,63.49
2018-06-11T12:24:06.471Z,62.60
2018-06-11T12:26:35.595Z,62.77
2018-06-11T12:29:04.713Z,61.39
2018-06-11T12:31:34.040Z,62.46
2018-06-11T12:34:03.391Z,61.97
2018-06-11T12:36:32.383Z,63.07
2018-06-11T12:39:02.075Z,60.20
2018-06-11T12:41:31.601Z,60.91
2018-06-11T12:44:00.700Z,61.04
2018-06-11T12:46:29.680Z,60.23
2018-06-11T12:48:58.838Z,60.55
2018-06-11T12:51:28.137Z,59.79
2018-06-11T12:53:57.488Z,60.27
2018-06-11T12:56:26.883Z,59.85
2018-06-11T12:58:55.925Z,59.95
2018-06-11T13:01:24.838Z,60.03
2018-06-11T13:03:54.031Z,59.70
2018-06-11T13:06:23.193Z,59.12
2018-06-11T13:08:52.479Z,59.39
2018-06-11T13:11:21.996Z,59.26
2018-06-11T13:13:51.000Z,61.58
2018-06-11T13:16:20.590Z,62.02
2018-06-11T13:18:49.707Z,60.70
2018-06-11T13:21:19.370Z,60.33
2018-06-11T13:23:48.486Z,60.69
2018-06-11T13:26:17.431Z,61.37
2018-06-11T13:28:46.584Z,61.34
2018-06-11T13:31:15.636Z,63.03
2018-06-11T13:33:45.439Z,62.80
2018-06-11T13:36:14.675Z,63.51
2018-06-11T13:38:43.738Z,63.85
2018-06-11T13:41:12.869Z,61.79
2018-06-11T13:43:41.805Z,61.65
2018-06-11T13:46:11.590Z,60.90
2018-06-11T13:48:40.866Z,59.87
2018-06-11T13:51:10.174Z,59.78
2018-06-11T13:53:39.281Z,59.60
2018-06-11T13:56:08.383Z,59.85
2018-06-11T13:58:37.663Z,60.95
2018-06-11T14:01:06.991Z,61.66
2018-06-11T14:03:36.262Z,61.03
2018-06-11T14:06:08.559Z,61.01
2018-06-11T14:08:37.614Z,62.01
2018-06-11T14:11:13.636Z,60.76
2018-06-11T14:13:42.779Z,59.98
2018-06-11T14:16:11.998Z,60.37
2018-06-11T14:18:41.807Z,61.94
2018-06-11T14:21:11.190Z,62.68
2018-06-11T14:23:40.196Z,62.78
2018-06-11T14:26:10.204Z,62.88
2018-06-11T14:28:39.371Z,63.96
2018-06-11T14:31:09.225Z,62.60
2018-06-11T14:33:38.289Z,62.06
2018-06-11T14:36:07.275Z,64.26
2018-06-11T14:38:36.530Z,64.81
2018-06-11T14:41:05.603Z,65.87
2018-06-11T14:43:34.909Z,66.88
2018-06-11T14:46:07.794Z,67.00
2018-06-11T14:51:04.998Z,62.95
2018-06-11T14:53:34.399Z,64.08
2018-06-11T14:56:06.843Z,64.09
2018-06-11T14:58:35.834Z,65.91
2018-06-11T15:01:04.831Z,65.21
2018-06-11T15:03:33.916Z,61.17
2018-06-11T15:06:06.299Z,59.83
2018-06-11T15:08:35.807Z,60.45
2018-06-11T15:11:05.303Z,61.77
2018-06-11T15:13:34.560Z,62.32
2018-06-11T15:16:06.782Z,64.79
2018-06-11T15:18:35.974Z,63.04
2018-06-11T15:21:05.301Z,62.44
2018-06-11T15:23:34.794Z,62.76
2018-06-11T15:26:06.456Z,63.11
2018-06-11T15:28:35.715Z,63.70
2018-06-11T15:31:04.892Z,65.75
2018-06-11T15:33:34.316Z,65.46
2018-06-11T15:36:10.787Z,68.79
2018-06-11T15:38:40.062Z,70.51
2018-06-11T15:41:09.900Z,67.68
2018-06-11T15:43:39.466Z,68.31
2018-06-11T15:46:08.878Z,69.88
2018-06-11T15:48:39.331Z,70.83
2018-06-11T15:51:09.166Z,71.43
2018-06-11T15:53:38.913Z,71.60
2018-06-11T15:56:08.166Z,72.54
2018-06-11T15:58:37.199Z,75.37
2018-06-11T16:01:06.555Z,75.21
2018-06-11T16:03:35.647Z,73.34
2018-06-11T16:06:06.780Z,73.29
2018-06-11T16:08:35.746Z,73.22
2018-06-11T16:11:04.989Z,72.85
2018-06-11T16:13:34.073Z,73.11
2018-06-11T16:16:06.656Z,72.94
2018-06-11T16:18:35.708Z,73.55
2018-06-11T16:21:04.572Z,72.85
2018-06-11T16:23:34.062Z,72.11
2018-06-11T16:26:08.021Z,73.79
2018-06-11T16:28:37.587Z,73.15
2018-06-11T16:31:06.570Z,74.51
2018-06-11T16:33:35.770Z,73.45
2018-06-11T16:36:08.506Z,74.15
2018-06-11T16:38:37.646Z,73.72
2018-06-11T16:41:07.531Z,74.60
2018-06-11T16:43:36.972Z,72.39
2018-06-11T16:46:06.081Z,72.63
2018-06-11T16:48:35.344Z,72.15
2018-06-11T16:51:04.459Z,71.16
2018-06-11T16:53:33.735Z,71.69
2018-06-11T16:56:05.892Z,71.14
2018-06-11T16:58:35.416Z,72.63
2018-06-11T17:01:04.383Z,72.22
2018-06-11T17:03:34.562Z,71.80
2018-06-11T17:06:06.683Z,71.95
2018-06-11T17:08:36.076Z,72.44
2018-06-11T17:11:05.385Z,71.83
2018-06-11T17:13:34.548Z,71.52
2018-06-11T17:16:07.559Z,73.25
2018-06-11T17:18:36.523Z,71.28
2018-06-11T17:21:06.539Z,70.60
2018-06-11T17:23:36.301Z,71.33
2018-06-11T17:26:07.219Z,72.76
2018-06-11T17:28:36.166Z,73.13
2018-06-11T17:31:05.443Z,73.38
2018-06-11T17:33:34.406Z,73.59
2018-06-11T17:36:07.527Z,71.20
2018-06-11T17:38:36.857Z,71.21
2018-06-11T17:41:06.047Z,70.71
2018-06-11T17:43:35.142Z,70.88
2018-06-11T17:46:12.628Z,71.18
2018-06-11T17:48:42.554Z,71.44
2018-06-11T17:51:12.355Z,70.51
2018-06-11T17:53:41.893Z,70.03
2018-06-11T17:56:10.877Z,70.88
2018-06-11T17:58:40.161Z,70.04
2018-06-11T18:01:09.586Z,69.18
2018-06-11T18:03:39.066Z,68.42
2018-06-11T18:06:08.243Z,68.64
2018-06-11T18:08:37.301Z,67.66
2018-06-11T18:11:06.581Z,68.75
2018-06-11T18:13:35.695Z,68.30
2018-06-11T18:16:06.451Z,69.67
2018-06-11T18:18:35.538Z,69.59
2018-06-11T18:21:05.031Z,70.19
2018-06-11T18:23:34.131Z,68.81
2018-06-11T18:26:06.425Z,68.61
2018-06-11T18:28:35.494Z,68.76
2018-06-11T18:31:04.818Z,69.69
2018-06-11T18:33:33.914Z,69.99
2018-06-11T18:36:08.723Z,70.01
2018-06-11T18:38:38.295Z,70.55
2018-06-11T18:41:07.930Z,71.65
2018-06-11T18:43:36.899Z,71.25
2018-06-11T18:46:07.769Z,70.37
2018-06-11T18:48:36.694Z,70.51
2018-06-11T18:51:05.938Z,71.68
2018-06-11T18:53:35.067Z,73.08
2018-06-11T18:56:08.010Z,72.14
2018-06-11T18:58:37.334Z,72.12
2018-06-11T19:01:06.443Z,71.97
2018-06-11T19:03:35.775Z,73.10
2018-06-11T19:06:08.103Z,73.74
2018-06-11T19:08:37.202Z,74.24
2018-06-11T19:11:06.134Z,77.17
2018-06-11T19:13:35.606Z,79.25
2018-06-11T19:16:07.287Z,80.09
2018-06-11T19:18:36.755Z,80.28
2018-06-11T19:21:06.403Z,79.26
2018-06-11T19:23:35.431Z,79.04
2018-06-11T19:26:07.735Z,80.59
2018-06-11T19:28:37.052Z,81.73
2018-06-11T19:31:06.167Z,82.96
2018-06-11T19:33:35.463Z,84.26
2018-06-11T19:36:07.727Z,84.22
2018-06-11T19:38:36.875Z,86.20
2018-06-11T19:41:06.142Z,84.30
2018-06-11T19:43:35.443Z,84.42
2018-06-11T19:46:07.799Z,84.71
2018-06-11T19:48:37.685Z,84.89
2018-06-11T19:51:06.879Z,85.89
2018-06-11T19:53:36.263Z,86.37
2018-06-11T19:56:06.448Z,86.91
2018-06-11T19:58:35.683Z,86.91
2018-06-11T20:01:05.014Z,87.39
2018-06-11T20:03:35.037Z,88.05
2018-06-11T20:06:08.123Z,88.69
2018-06-11T20:08:37.183Z,89.45
2018-06-11T20:11:06.452Z,89.59
2018-06-11T20:13:35.808Z,90.49
2018-06-11T20:16:06.531Z,90.76
2018-06-11T20:18:35.642Z,91.80
2018-06-11T20:21:04.963Z,90.94
2018-06-11T20:23:34.242Z,91.07
2018-06-11T20:26:06.235Z,92.12
2018-06-11T20:28:35.468Z,92.18
2018-06-11T20:31:04.599Z,91.64
2018-06-11T20:33:34.078Z,91.48
2018-06-11T20:36:06.688Z,91.32
2018-06-11T20:38:35.947Z,91.85
2018-06-11T20:41:05.104Z,91.88
2018-06-11T20:43:34.157Z,92.78
2018-06-11T20:46:06.989Z,93.19
2018-06-11T20:48:37.893Z,92.83
2018-06-11T20:51:08.867Z,92.79
2018-06-11T20:53:39.796Z,92.44
2018-06-11T20:56:11.289Z,92.31
2018-06-11T20:58:42.692Z,92.33
2018-06-11T21:01:13.737Z,92.14
2018-06-11T21:03:44.465Z,92.54
2018-06-11T21:06:15.959Z,93.19
2018-06-11T21:08:46.865Z,93.29
2018-06-11T21:11:18.448Z,92.43
2018-06-11T21:13:49.558Z,91.70
2018-06-11T21:16:19.477Z,92.01
2018-06-11T21:18:48.695Z,91.63
2018-06-11T21:21:17.730Z,91.65
2018-06-11T21:23:46.844Z,92.29
2018-06-11T21:26:15.929Z,92.10
2018-06-11T21:28:46.011Z,91.85
2018-06-11T21:31:14.923Z,92.21
2018-06-11T21:33:43.935Z,91.96
2018-06-11T21:36:13.139Z,91.47
2018-06-11T21:38:42.224Z,92.16
2018-06-11T21:41:11.293Z,92.29
2018-06-11T21:43:40.376Z,91.84
2018-06-11T21:46:09.704Z,92.55
2018-06-11T21:48:38.778Z,92.64
2018-06-11T21:51:07.793Z,93.21
2018-06-11T21:53:36.741Z,94.18
2018-06-11T21:56:05.992Z,94.11
2018-06-11T21:58:35.732Z,93.61
2018-06-11T22:01:05.678Z,93.86
2018-06-11T22:03:34.709Z,93.16
2018-06-11T22:06:06.564Z,92.64
2018-06-11T22:08:35.639Z,92.70
2018-06-11T22:11:05.783Z,92.62
2018-06-11T22:13:34.704Z,93.26
2018-06-11T22:16:07.646Z,93.74
2018-06-11T22:18:36.715Z,93.85
2018-06-11T22:21:05.659Z,93.00
2018-06-11T22:23:34.603Z,93.70
2018-06-11T22:26:07.519Z,94.92
2018-06-11T22:28:36.468Z,94.79
2018-06-11T22:31:05.483Z,95.46
2018-06-11T22:33:34.562Z,95.51
2018-06-11T22:36:07.414Z,95.45
2018-06-11T22:38:36.372Z,94.95
2018-06-11T22:41:05.313Z,95.46
2018-06-11T22:43:34.299Z,94.44
2018-06-11T22:46:06.729Z,94.07
2018-06-11T22:48:36.259Z,93.38
2018-06-11T22:51:05.207Z,92.95
2018-06-11T22:53:34.165Z,92.85
2018-06-11T22:56:06.270Z,92.76
2018-06-11T22:58:35.198Z,93.10
2018-06-11T23:01:04.192Z,93.68
2018-06-11T23:03:33.147Z,93.21
2018-06-11T23:06:05.431Z,94.35
2018-06-11T23:08:34.391Z,93.32
2018-06-11T23:11:03.342Z,93.25
2018-06-11T23:13:32.274Z,94.51
2018-06-11T23:16:04.403Z,94.22
2018-06-11T23:18:34.319Z,94.36
2018-06-11T23:21:03.607Z,94.85
2018-06-11T23:23:32.649Z,96.09
2018-06-11T23:26:05.155Z,95.55
2018-06-11T23:28:34.687Z,95.11
2018-06-11T23:31:03.627Z,94.69
2018-06-11T23:33:32.577Z,95.13
2018-06-11T23:36:04.659Z,94.42
2018-06-11T23:38:33.688Z,94.64
2018-06-11T23:41:02.675Z,94.68
2018-06-11T23:43:31.645Z,94.90
2018-06-11T23:46:03.832Z,94.24
2018-06-11T23:48:33.675Z,94.34
2018-06-11T23:51:03.250Z,94.62
2018-06-11T23:53:32.438Z,93.95
2018-06-11T23:56:04.458Z,94.04
2018-06-11T23:58:33.635Z,94.70
